createdAt,value
2018-10-07T00:00:22.802Z,25.30
2018-10-07T00:02:51.144Z,25.30
2018-10-07T00:05:19.422Z,25.20
2018-10-07T00:07:47.761Z,25.20
2018-10-07T00:10:16.145Z,25.20
2018-10-07T00:12:44.425Z,25.20
2018-10-07T00:15:12.752Z,25.20
2018-10-07T00:17:41.189Z,25.20
2018-10-07T00:20:09.635Z,25.10
2018-10-07T00:22:38.377Z,25.10
2018-10-07T00:25:07.032Z,25.00
2018-10-07T00:27:35.375Z,25.00
2018-10-07T00:30:03.773Z,25.00
2018-10-07T00:32:32.200Z,25.00
2018-10-07T00:35:00.610Z,25.10
2018-10-07T00:37:28.988Z,25.10
2018-10-07T00:39:57.308Z,25.20
2018-10-07T00:42:25.640Z,25.10
2018-10-07T00:44:54.004Z,25.00
2018-10-07T00:47:22.480Z,25.10
2018-10-07T00:49:50.835Z,25.00
2018-10-07T00:52:19.368Z,25.00
2018-10-07T00:54:47.715Z,25.00
2018-10-07T00:57:16.168Z,25.00
2018-10-07T00:59:44.656Z,25.00
2018-10-07T01:02:13.149Z,25.00
2018-10-07T01:04:41.455Z,25.00
2018-10-07T01:07:09.861Z,25.00
2018-10-07T01:09:38.338Z,25.00
2018-10-07T01:12:06.875Z,25.00
2018-10-07T01:14:35.193Z,25.00
2018-10-07T01:17:03.648Z,25.00
2018-10-07T01:19:32.049Z,25.00
2018-10-07T01:22:00.505Z,24.90
2018-10-07T01:24:28.882Z,24.90
2018-10-07T01:26:57.260Z,24.80
2018-10-07T01:29:25.561Z,24.80
2018-10-07T01:31:53.852Z,24.90
2018-10-07T01:34:22.191Z,24.90
2018-10-07T01:36:50.499Z,24.90
2018-10-07T01:39:18.882Z,24.90
2018-10-07T01:41:47.203Z,24.90
2018-10-07T01:44:15.502Z,24.90
2018-10-07T01:46:43.811Z,24.90
2018-10-07T01:49:12.158Z,24.90
2018-10-07T01:51:40.544Z,24.90
2018-10-07T01:54:08.887Z,24.80
2018-10-07T01:56:37.179Z,24.80
2018-10-07T01:59:05.648Z,24.80
2018-10-07T02:01:34.104Z,24.90
2018-10-07T02:04:02.452Z,24.90
2018-10-07T02:06:30.731Z,24.80
2018-10-07T02:08:59.130Z,24.80
2018-10-07T02:11:27.428Z,24.80
2018-10-07T02:13:55.767Z,24.90
2018-10-07T02:16:24.187Z,24.80
2018-10-07T02:18:52.492Z,24.70
2018-10-07T02:21:20.888Z,24.70
2018-10-07T02:23:49.285Z,24.70
2018-10-07T02:26:17.575Z,24.70
2018-10-07T02:28:45.935Z,24.70
2018-10-07T02:31:14.211Z,24.80
2018-10-07T02:33:42.631Z,24.70
2018-10-07T02:36:11.046Z,24.80
2018-10-07T02:38:39.365Z,24.70
2018-10-07T02:41:07.783Z,24.70
2018-10-07T02:43:36.153Z,24.70
2018-10-07T02:46:04.455Z,24.70
2018-10-07T02:48:32.763Z,24.60
2018-10-07T02:51:01.115Z,24.60
2018-10-07T02:53:29.555Z,24.60
2018-10-07T02:55:57.812Z,24.60
2018-10-07T02:58:27.100Z,24.60
2018-10-07T03:00:55.454Z,24.60
2018-10-07T03:03:23.747Z,24.60
2018-10-07T03:05:52.051Z,24.60
2018-10-07T03:08:20.326Z,24.70
2018-10-07T03:10:48.619Z,24.70
2018-10-07T03:13:16.913Z,24.70
2018-10-07T03:15:45.336Z,24.70
2018-10-07T03:18:13.639Z,24.70
2018-10-07T03:20:41.977Z,24.60
2018-10-07T03:23:10.303Z,24.60
2018-10-07T03:25:38.706Z,24.60
2018-10-07T03:28:07.198Z,24.60
2018-10-07T03:30:35.612Z,24.60
2018-10-07T03:33:03.945Z,24.60
2018-10-07T03:35:32.362Z,24.50
2018-10-07T03:38:00.708Z,24.40
2018-10-07T03:40:29.130Z,24.40
2018-10-07T03:42:57.709Z,24.30
2018-10-07T03:45:26.131Z,24.30
2018-10-07T03:47:54.451Z,24.40
2018-10-07T03:50:22.837Z,24.40
2018-10-07T03:52:51.715Z,24.40
2018-10-07T03:55:20.095Z,24.40
2018-10-07T03:57:48.543Z,24.40
2018-10-07T04:00:17.045Z,24.40
2018-10-07T04:02:45.431Z,24.40
2018-10-07T04:05:13.812Z,24.40
2018-10-07T04:07:42.143Z,24.30
2018-10-07T04:10:10.485Z,24.30
2018-10-07T04:12:38.843Z,24.30
2018-10-07T04:15:07.371Z,24.30
2018-10-07T04:17:35.704Z,24.30
2018-10-07T04:20:04.223Z,24.30
2018-10-07T04:22:32.575Z,24.30
2018-10-07T04:25:00.955Z,24.40
2018-10-07T04:27:29.330Z,24.40
2018-10-07T04:29:57.641Z,24.40
2018-10-07T04:32:25.943Z,24.40
2018-10-07T04:34:54.262Z,24.40
2018-10-07T04:37:22.594Z,24.40
2018-10-07T04:39:51.044Z,24.40
2018-10-07T04:42:19.303Z,24.40
2018-10-07T04:44:47.580Z,24.40
2018-10-07T04:47:15.945Z,24.40
2018-10-07T04:49:44.363Z,24.40
2018-10-07T04:52:12.716Z,24.40
2018-10-07T04:54:40.995Z,24.40
2018-10-07T04:57:09.372Z,24.40
2018-10-07T04:59:37.861Z,24.30
2018-10-07T05:02:06.508Z,24.30
2018-10-07T05:04:34.794Z,24.30
2018-10-07T05:07:03.135Z,24.20
2018-10-07T05:09:31.492Z,24.30
2018-10-07T05:12:01.604Z,24.30
2018-10-07T05:14:29.963Z,24.30
2018-10-07T05:16:58.408Z,24.30
2018-10-07T05:19:26.766Z,24.20
2018-10-07T05:21:55.170Z,24.20
2018-10-07T05:24:23.592Z,24.20
2018-10-07T05:26:51.977Z,24.20
2018-10-07T05:29:20.341Z,24.10
2018-10-07T05:31:48.731Z,24.10
2018-10-07T05:34:17.095Z,24.20
2018-10-07T05:36:45.515Z,24.20
2018-10-07T05:39:13.988Z,24.20
2018-10-07T05:41:42.562Z,24.20
2018-10-07T05:44:11.054Z,24.20
2018-10-07T05:46:39.508Z,24.20
2018-10-07T05:49:07.933Z,24.20
2018-10-07T05:51:36.276Z,24.20
2018-10-07T05:54:04.647Z,24.20
2018-10-07T05:56:32.968Z,24.30
2018-10-07T05:59:01.437Z,24.30
2018-10-07T06:01:34.463Z,24.30
2018-10-07T06:04:11.867Z,24.30
2018-10-07T06:06:40.282Z,24.30
2018-10-07T06:09:13.644Z,24.30
2018-10-07T06:11:42.119Z,24.40
2018-10-07T06:14:20.431Z,24.40
2018-10-07T06:16:48.824Z,24.40
2018-10-07T06:19:17.162Z,24.40
2018-10-07T06:21:45.551Z,24.40
2018-10-07T06:24:13.885Z,24.40
2018-10-07T06:26:42.267Z,24.40
2018-10-07T06:29:10.716Z,24.50
2018-10-07T06:31:39.121Z,24.40
2018-10-07T06:34:07.716Z,24.50
2018-10-07T06:36:36.080Z,24.50
2018-10-07T06:39:04.893Z,24.60
2018-10-07T06:41:33.406Z,24.60
2018-10-07T06:44:01.857Z,24.70
2018-10-07T06:46:30.338Z,24.70
2018-10-07T06:48:58.716Z,24.80
2018-10-07T06:51:27.100Z,24.80
2018-10-07T06:53:55.504Z,24.90
2018-10-07T06:56:23.875Z,25.00
2018-10-07T06:58:52.238Z,25.00
2018-10-07T07:01:20.568Z,25.10
2018-10-07T07:03:48.935Z,25.20
2018-10-07T07:06:17.277Z,25.30
2018-10-07T07:08:45.643Z,25.30
2018-10-07T07:11:14.054Z,25.40
2018-10-07T07:13:42.430Z,25.50
2018-10-07T07:16:10.984Z,25.60
2018-10-07T07:18:39.387Z,25.70
2018-10-07T07:21:07.876Z,25.80
2018-10-07T07:23:36.245Z,25.80
2018-10-07T07:26:04.531Z,26.00
2018-10-07T07:28:32.960Z,26.10
2018-10-07T07:31:01.416Z,26.10
2018-10-07T07:33:29.901Z,26.20
2018-10-07T07:35:58.233Z,26.20
2018-10-07T07:38:26.563Z,26.20
2018-10-07T07:40:54.924Z,26.20
2018-10-07T07:43:23.335Z,26.30
2018-10-07T07:45:51.652Z,26.40
2018-10-07T07:48:19.975Z,26.50
2018-10-07T07:50:48.268Z,26.50
2018-10-07T07:53:16.657Z,26.60
2018-10-07T07:55:45.016Z,26.70
2018-10-07T07:58:13.334Z,26.90
2018-10-07T08:00:41.667Z,27.10
2018-10-07T08:03:09.995Z,27.20
2018-10-07T08:05:38.587Z,27.50
2018-10-07T08:08:07.315Z,27.70
2018-10-07T08:10:35.754Z,27.90
2018-10-07T08:13:04.123Z,28.00
2018-10-07T08:15:32.460Z,28.20
2018-10-07T08:18:00.739Z,28.50
2018-10-07T08:20:29.291Z,28.70
2018-10-07T08:22:57.765Z,29.00
2018-10-07T08:25:26.119Z,29.20
2018-10-07T08:27:54.546Z,29.50
2018-10-07T08:30:23.133Z,29.80
2018-10-07T08:32:51.540Z,30.10
2018-10-07T08:35:20.011Z,30.40
2018-10-07T08:37:48.303Z,30.60
2018-10-07T08:40:16.763Z,30.80
2018-10-07T08:42:45.107Z,31.00
2018-10-07T08:45:13.501Z,31.30
2018-10-07T08:47:41.831Z,31.50
2018-10-07T08:50:10.357Z,31.90
2018-10-07T08:52:38.736Z,32.30
2018-10-07T08:55:07.189Z,32.60
2018-10-07T08:57:35.672Z,33.00
2018-10-07T09:00:04.080Z,33.40
2018-10-07T09:02:32.633Z,33.70
2018-10-07T09:05:01.016Z,33.90
2018-10-07T09:07:29.348Z,34.10
2018-10-07T09:09:57.858Z,34.30
2018-10-07T09:12:26.289Z,34.40
2018-10-07T09:14:54.820Z,34.60
2018-10-07T09:17:23.259Z,34.80
2018-10-07T09:19:51.705Z,34.90
2018-10-07T09:22:20.348Z,35.10
2018-10-07T09:24:48.819Z,35.30
2018-10-07T09:27:17.406Z,35.50
2018-10-07T09:29:46.040Z,35.60
2018-10-07T09:32:14.516Z,35.80
2018-10-07T09:34:42.991Z,36.00
2018-10-07T09:37:11.529Z,36.10
2018-10-07T09:39:39.892Z,36.30
2018-10-07T09:42:08.437Z,36.30
2018-10-07T09:44:36.984Z,36.30
2018-10-07T09:47:05.574Z,36.40
2018-10-07T09:49:34.144Z,36.40
2018-10-07T09:52:02.650Z,36.20
2018-10-07T09:54:31.091Z,36.00
2018-10-07T09:56:59.603Z,35.80
2018-10-07T09:59:28.004Z,35.80
2018-10-07T10:01:56.783Z,35.90
2018-10-07T10:04:25.284Z,36.10
2018-10-07T10:06:53.574Z,36.30
2018-10-07T10:09:21.974Z,36.50
2018-10-07T10:11:50.320Z,36.70
2018-10-07T10:14:18.820Z,36.90
2018-10-07T10:16:53.979Z,37.30
2018-10-07T10:19:31.711Z,37.50
2018-10-07T10:22:08.531Z,37.70
2018-10-07T10:24:53.061Z,37.90
2018-10-07T10:27:56.467Z,37.90
2018-10-07T10:32:44.004Z,38.10
2018-10-07T10:36:17.944Z,38.30
2018-10-07T10:38:53.651Z,38.40
2018-10-07T10:41:34.351Z,38.50
2018-10-07T10:45:08.049Z,38.50
2018-10-07T10:47:42.717Z,38.60
2018-10-07T10:50:53.916Z,38.70
2018-10-07T10:53:57.539Z,38.90
2018-10-07T10:56:29.759Z,39.00
2018-10-07T11:01:13.296Z,38.80
2018-10-07T11:04:23.431Z,38.50
2018-10-07T11:06:59.827Z,37.60
2018-10-07T11:10:38.983Z,36.90
2018-10-07T11:13:21.200Z,36.50
2018-10-07T11:16:05.321Z,36.40
2018-10-07T11:18:48.068Z,36.30
2018-10-07T11:21:27.215Z,36.50
2018-10-07T11:24:09.398Z,36.80
2018-10-07T11:26:45.348Z,37.10
2018-10-07T11:29:25.241Z,37.40
2018-10-07T11:34:11.832Z,37.60
2018-10-07T11:37:25.467Z,37.80
2018-10-07T11:40:05.240Z,38.00
2018-10-07T11:43:14.504Z,38.00
2018-10-07T11:45:47.792Z,38.00
2018-10-07T11:48:26.701Z,38.10
2018-10-07T11:51:36.530Z,38.00
2018-10-07T11:54:10.482Z,38.00
2018-10-07T11:56:39.377Z,37.90
2018-10-07T11:59:07.979Z,37.80
2018-10-07T12:01:36.506Z,37.90
2018-10-07T12:04:05.117Z,37.90
2018-10-07T12:06:33.443Z,37.70
2018-10-07T12:09:01.886Z,37.60
2018-10-07T12:11:30.367Z,37.40
2018-10-07T12:13:58.710Z,37.40
2018-10-07T12:16:27.130Z,37.30
2018-10-07T12:18:55.619Z,37.20
2018-10-07T12:21:24.511Z,37.10
2018-10-07T12:23:54.287Z,37.30
2018-10-07T12:26:22.900Z,37.60
2018-10-07T12:28:51.442Z,37.90
2018-10-07T12:31:20.368Z,38.10
2018-10-07T12:33:48.782Z,38.30
2018-10-07T12:36:17.369Z,38.40
2018-10-07T12:38:45.893Z,38.60
2018-10-07T12:41:14.482Z,38.90
2018-10-07T12:43:42.912Z,39.20
2018-10-07T12:46:11.490Z,39.50
2018-10-07T12:48:40.554Z,39.80
2018-10-07T12:51:09.264Z,40.10
2018-10-07T12:53:37.824Z,40.20
2018-10-07T12:56:06.755Z,40.50
2018-10-07T12:58:35.103Z,40.60
2018-10-07T13:01:03.489Z,40.70
2018-10-07T13:03:32.305Z,40.70
2018-10-07T13:06:00.709Z,40.70
2018-10-07T13:08:29.059Z,40.50
2018-10-07T13:10:57.660Z,40.20
2018-10-07T13:13:26.755Z,39.90
2018-10-07T13:15:55.043Z,39.70
2018-10-07T13:18:23.480Z,39.60
2018-10-07T13:20:53.440Z,39.60
2018-10-07T13:23:22.244Z,39.50
2018-10-07T13:25:50.531Z,39.50
2018-10-07T13:28:18.855Z,39.30
2018-10-07T13:30:48.580Z,39.20
2018-10-07T13:33:16.973Z,39.10
2018-10-07T13:35:45.730Z,39.10
2018-10-07T13:38:15.193Z,39.00
2018-10-07T13:40:43.705Z,39.00
2018-10-07T13:43:12.195Z,39.00
2018-10-07T13:45:40.691Z,39.00
2018-10-07T13:48:09.133Z,38.90
2018-10-07T13:50:37.761Z,38.70
2018-10-07T13:53:06.307Z,38.60
2018-10-07T13:55:34.992Z,38.40
2018-10-07T13:58:03.716Z,38.30
2018-10-07T14:00:32.055Z,38.10
2018-10-07T14:03:00.556Z,38.10
2018-10-07T14:05:28.998Z,38.10
2018-10-07T14:07:57.396Z,38.10
2018-10-07T14:10:25.753Z,38.00
2018-10-07T14:12:54.225Z,37.90
2018-10-07T14:15:22.710Z,37.70
2018-10-07T14:17:50.959Z,37.60
2018-10-07T14:20:19.545Z,37.40
2018-10-07T14:22:47.988Z,37.30
2018-10-07T14:25:16.409Z,37.10
2018-10-07T14:27:44.927Z,37.00
2018-10-07T14:30:13.348Z,36.80
2018-10-07T14:32:41.899Z,36.50
2018-10-07T14:35:10.321Z,36.00
2018-10-07T14:37:38.783Z,35.50
2018-10-07T14:40:07.148Z,35.10
2018-10-07T14:42:35.576Z,34.80
2018-10-07T14:45:04.033Z,34.60
2018-10-07T14:47:32.470Z,34.40
2018-10-07T14:50:00.880Z,34.10
2018-10-07T14:52:29.307Z,33.80
2018-10-07T14:54:57.754Z,33.50
2018-10-07T14:57:26.070Z,33.40
2018-10-07T14:59:54.429Z,33.10
2018-10-07T15:02:22.855Z,32.90
2018-10-07T15:04:51.237Z,32.60
2018-10-07T15:07:19.579Z,32.10
2018-10-07T15:09:47.996Z,31.60
2018-10-07T15:12:16.489Z,30.90
2018-10-07T15:14:45.000Z,30.40
2018-10-07T15:17:13.370Z,29.80
2018-10-07T15:19:41.789Z,29.30
2018-10-07T15:22:10.349Z,28.90
2018-10-07T15:24:38.714Z,28.50
2018-10-07T15:27:11.031Z,28.20
2018-10-07T15:29:39.445Z,27.80
2018-10-07T15:32:08.044Z,27.40
2018-10-07T15:34:36.426Z,27.10
2018-10-07T15:37:04.799Z,26.70
2018-10-07T15:39:33.233Z,26.40
2018-10-07T15:42:01.820Z,26.20
2018-10-07T15:44:30.275Z,26.00
2018-10-07T15:46:58.864Z,25.70
2018-10-07T15:49:27.300Z,25.60
2018-10-07T15:51:55.715Z,25.40
2018-10-07T15:54:24.075Z,25.20
2018-10-07T15:56:52.562Z,25.00
2018-10-07T15:59:20.756Z,24.90
2018-10-07T16:01:49.194Z,24.60
2018-10-07T16:04:17.567Z,24.50
2018-10-07T16:06:45.976Z,24.30
2018-10-07T16:09:14.307Z,24.20
2018-10-07T16:11:42.731Z,24.10
2018-10-07T16:14:11.182Z,24.00
2018-10-07T16:16:39.769Z,23.70
2018-10-07T16:19:08.234Z,23.60
2018-10-07T16:21:36.736Z,23.40
2018-10-07T16:24:05.059Z,23.20
2018-10-07T16:26:33.443Z,23.10
2018-10-07T16:29:01.770Z,23.00
2018-10-07T16:31:30.088Z,22.80
2018-10-07T16:33:58.566Z,22.70
2018-10-07T16:36:27.086Z,22.60
2018-10-07T16:38:55.447Z,22.50
2018-10-07T16:41:23.767Z,22.40
2018-10-07T16:43:52.283Z,22.20
2018-10-07T16:46:20.665Z,22.20
2018-10-07T16:48:49.039Z,22.10
2018-10-07T16:51:17.384Z,22.00
2018-10-07T16:53:45.821Z,21.90
2018-10-07T16:56:14.121Z,21.90
2018-10-07T16:58:42.780Z,21.90
2018-10-07T17:01:11.208Z,21.80
2018-10-07T17:03:39.700Z,21.70
2018-10-07T17:06:08.127Z,21.70
2018-10-07T17:08:36.513Z,21.70
2018-10-07T17:11:05.483Z,21.70
2018-10-07T17:13:33.771Z,21.70
2018-10-07T17:16:02.223Z,21.70
2018-10-07T17:18:30.614Z,21.70
2018-10-07T17:20:59.144Z,21.70
2018-10-07T17:23:27.723Z,21.60
2018-10-07T17:25:56.147Z,21.60
2018-10-07T17:28:24.632Z,21.60
2018-10-07T17:30:53.092Z,21.60
2018-10-07T17:33:21.559Z,21.50
2018-10-07T17:35:50.091Z,21.50
2018-10-07T17:38:18.530Z,21.50
2018-10-07T17:40:47.068Z,21.40
2018-10-07T17:43:15.439Z,21.40
2018-10-07T17:45:43.927Z,21.30
2018-10-07T17:48:12.354Z,21.30
2018-10-07T17:50:40.789Z,21.30
2018-10-07T17:53:09.203Z,21.20
2018-10-07T17:55:37.875Z,21.10
2018-10-07T17:58:06.458Z,21.10
2018-10-07T18:00:34.942Z,21.10
2018-10-07T18:03:03.406Z,21.10
2018-10-07T18:05:31.750Z,21.00
2018-10-07T18:08:00.460Z,21.00
2018-10-07T18:10:28.926Z,20.90
2018-10-07T18:12:57.504Z,20.90
2018-10-07T18:15:25.923Z,20.90
2018-10-07T18:17:54.339Z,20.90
2018-10-07T18:20:22.910Z,20.90
2018-10-07T18:22:51.258Z,20.90
2018-10-07T18:25:19.601Z,20.80
2018-10-07T18:27:47.936Z,20.80
2018-10-07T18:30:16.344Z,20.70
2018-10-07T18:32:44.756Z,20.70
2018-10-07T18:35:13.360Z,20.70
2018-10-07T18:37:41.657Z,20.70
2018-10-07T18:40:10.165Z,20.70
2018-10-07T18:42:38.487Z,20.70
2018-10-07T18:45:06.886Z,20.70
2018-10-07T18:47:35.334Z,20.60
2018-10-07T18:50:03.823Z,20.60
2018-10-07T18:52:32.140Z,20.60
2018-10-07T18:55:00.507Z,20.60
2018-10-07T18:57:29.726Z,20.60
2018-10-07T18:59:58.088Z,20.60
2018-10-07T19:02:26.540Z,20.60
2018-10-07T19:04:54.869Z,20.60
2018-10-07T19:07:23.123Z,20.60
2018-10-07T19:09:51.503Z,20.60
2018-10-07T19:12:19.864Z,20.50
2018-10-07T19:14:48.198Z,20.50
2018-10-07T19:17:16.476Z,20.50
2018-10-07T19:19:44.777Z,20.50
2018-10-07T19:22:13.197Z,20.50
2018-10-07T19:24:41.537Z,20.50
2018-10-07T19:27:10.005Z,20.50
2018-10-07T19:29:38.400Z,20.50
2018-10-07T19:32:06.810Z,20.40
2018-10-07T19:34:35.234Z,20.30
2018-10-07T19:37:03.694Z,20.30
2018-10-07T19:39:32.059Z,20.20
2018-10-07T19:42:00.399Z,20.20
2018-10-07T19:44:28.701Z,20.10
2018-10-07T19:46:57.072Z,20.10
2018-10-07T19:49:25.359Z,20.10
2018-10-07T19:51:53.657Z,20.10
2018-10-07T19:54:21.975Z,20.10
2018-10-07T19:56:50.388Z,20.20
2018-10-07T19:59:18.728Z,20.30
2018-10-07T20:01:47.182Z,20.30
2018-10-07T20:04:15.552Z,20.30
2018-10-07T20:06:44.149Z,20.40
2018-10-07T20:09:12.907Z,20.30
2018-10-07T20:11:41.337Z,20.30
2018-10-07T20:14:09.700Z,20.30
2018-10-07T20:16:39.260Z,20.30
2018-10-07T20:19:08.273Z,20.30
2018-10-07T20:21:37.516Z,20.30
2018-10-07T20:24:06.247Z,20.30
2018-10-07T20:26:34.679Z,20.30
2018-10-07T20:29:03.226Z,20.30
2018-10-07T20:31:31.709Z,20.30
2018-10-07T20:34:00.102Z,20.20
2018-10-07T20:36:28.462Z,20.10
2018-10-07T20:38:56.896Z,20.10
2018-10-07T20:41:25.543Z,19.80
2018-10-07T20:43:53.971Z,19.60
2018-10-07T20:46:22.475Z,19.40
2018-10-07T20:48:51.100Z,19.20
2018-10-07T20:51:19.665Z,19.10
2018-10-07T20:53:48.079Z,19.00
2018-10-07T20:56:16.546Z,19.00
2018-10-07T20:58:45.067Z,19.10
2018-10-07T21:01:13.566Z,19.10
2018-10-07T21:03:41.959Z,19.20
2018-10-07T21:06:10.435Z,19.30
2018-10-07T21:08:38.956Z,19.30
2018-10-07T21:11:07.667Z,19.30
2018-10-07T21:13:36.059Z,19.30
2018-10-07T21:16:04.416Z,19.30
2018-10-07T21:18:33.052Z,19.40
2018-10-07T21:21:01.427Z,19.40
2018-10-07T21:23:29.983Z,19.40
2018-10-07T21:25:58.445Z,19.40
2018-10-07T21:28:26.839Z,19.40
2018-10-07T21:30:55.193Z,19.50
2018-10-07T21:33:23.748Z,19.40
2018-10-07T21:35:52.104Z,19.40
2018-10-07T21:38:20.668Z,19.40
2018-10-07T21:40:49.183Z,19.40
2018-10-07T21:43:17.555Z,19.40
2018-10-07T21:45:45.962Z,19.50
2018-10-07T21:48:15.358Z,19.60
2018-10-07T21:50:44.219Z,19.50
2018-10-07T21:53:12.675Z,19.50
2018-10-07T21:55:40.994Z,19.60
2018-10-07T21:58:09.348Z,19.60
2018-10-07T22:00:37.845Z,19.60
2018-10-07T22:03:06.499Z,19.60
2018-10-07T22:05:34.952Z,19.50
2018-10-07T22:08:03.385Z,19.50
2018-10-07T22:10:32.143Z,19.60
2018-10-07T22:13:00.568Z,19.50
2018-10-07T22:15:29.212Z,19.40
2018-10-07T22:17:57.589Z,19.40
2018-10-07T22:20:26.068Z,19.40
2018-10-07T22:22:54.523Z,19.30
2018-10-07T22:25:22.943Z,19.20
2018-10-07T22:27:51.362Z,19.20
2018-10-07T22:30:19.867Z,19.20
2018-10-07T22:32:48.220Z,19.20
2018-10-07T22:35:16.801Z,19.10
2018-10-07T22:37:45.336Z,19.00
2018-10-07T22:40:13.872Z,18.80
2018-10-07T22:42:42.292Z,18.70
2018-10-07T22:45:10.610Z,18.70
2018-10-07T22:47:39.276Z,18.60
2018-10-07T22:50:07.738Z,18.70
2018-10-07T22:52:36.202Z,18.50
2018-10-07T22:55:04.598Z,18.40
2018-10-07T22:57:32.978Z,18.30
2018-10-07T23:00:01.361Z,18.20
2018-10-07T23:02:29.774Z,18.20
2018-10-07T23:04:58.323Z,18.10
2018-10-07T23:07:26.902Z,18.00
2018-10-07T23:09:55.396Z,18.00
2018-10-07T23:12:23.793Z,17.90
2018-10-07T23:14:52.103Z,17.80
2018-10-07T23:17:20.625Z,17.70
2018-10-07T23:19:49.180Z,17.80
2018-10-07T23:22:17.605Z,17.80
2018-10-07T23:24:45.945Z,17.90
2018-10-07T23:27:14.741Z,17.80
2018-10-07T23:29:43.153Z,17.70
2018-10-07T23:32:11.557Z,17.60
2018-10-07T23:34:40.388Z,17.60
2018-10-07T23:37:08.815Z,17.50
2018-10-07T23:39:37.296Z,17.40
2018-10-07T23:42:05.836Z,17.30
2018-10-07T23:44:34.435Z,17.30
2018-10-07T23:47:02.835Z,17.30
2018-10-07T23:49:31.245Z,17.40
2018-10-07T23:51:59.704Z,17.60
2018-10-07T23:54:28.390Z,17.70
2018-10-07T23:56:56.775Z,17.70
2018-10-07T23:59:25.333Z,17.70
